createdAt,value
2022-08-05T00:01:27.712Z,6.30
2022-08-05T00:06:33.353Z,6.90
2022-08-05T00:11:49.229Z,5.60
2022-08-05T00:16:58.427Z,6.60
2022-08-05T00:22:02.265Z,6.00
2022-08-05T00:27:10.416Z,7.10
2022-08-05T00:32:16.771Z,5.70
2022-08-05T00:37:19.734Z,5.70
2022-08-05T00:42:36.721Z,4.10
2022-08-05T00:47:57.214Z,9.40
2022-08-05T00:53:03.638Z,6.00
2022-08-05T00:58:17.014Z,5.40
2022-08-05T01:03:23.498Z,8.20
2022-08-05T01:08:41.929Z,6.40
2022-08-05T01:14:00.232Z,6.20
2022-08-05T01:19:36.786Z,5.50
2022-08-05T01:25:10.774Z,4.90
2022-08-05T01:30:17.766Z,6.80
2022-08-05T01:35:50.635Z,6.90
2022-08-05T01:40:52.060Z,4.20
2022-08-05T01:45:57.004Z,6.60
2022-08-05T01:51:00.202Z,3.90
2022-08-05T01:58:12.245Z,6.10
2022-08-05T02:01:43.124Z,4.80
2022-08-05T02:06:46.147Z,5.30
2022-08-05T02:12:05.998Z,6.50
2022-08-05T02:18:27.583Z,7.40
2022-08-05T02:22:50.429Z,5.80
2022-08-05T02:27:58.883Z,7.80
2022-08-05T02:33:04.921Z,5.50
2022-08-05T02:38:10.511Z,4.60
2022-08-05T02:43:18.014Z,7.00
2022-08-05T02:48:29.030Z,5.20
2022-08-05T02:53:38.933Z,6.60
2022-08-05T02:58:45.084Z,7.60
2022-08-05T03:04:03.195Z,5.00
2022-08-05T03:09:08.083Z,6.70
2022-08-05T03:14:13.525Z,6.20
2022-08-05T03:19:17.180Z,4.80
2022-08-05T03:24:36.075Z,5.50
2022-08-05T03:29:45.343Z,8.60
2022-08-05T03:35:04.500Z,4.40
2022-08-05T03:40:11.792Z,5.10
2022-08-05T03:45:21.672Z,4.50
2022-08-05T03:50:34.439Z,7.00
2022-08-05T03:56:01.625Z,4.10
2022-08-05T04:01:11.190Z,5.20
2022-08-05T04:06:18.781Z,5.80
2022-08-05T04:11:23.583Z,5.40
2022-08-05T04:16:46.609Z,5.90
2022-08-05T04:22:10.081Z,5.70
2022-08-05T04:27:14.053Z,6.10
2022-08-05T04:32:30.665Z,6.60
2022-08-05T04:38:01.602Z,6.00
2022-08-05T04:42:56.838Z,7.20
2022-08-05T04:48:18.618Z,8.50
2022-08-05T04:53:33.576Z,7.40
2022-08-05T04:58:38.394Z,6.50
2022-08-05T05:03:41.825Z,7.20
2022-08-05T05:08:45.387Z,6.60
2022-08-05T05:13:52.849Z,7.20
2022-08-05T05:19:18.628Z,8.70
2022-08-05T05:24:21.832Z,7.70
2022-08-05T05:29:24.592Z,5.60
2022-08-05T05:34:47.265Z,7.50
2022-08-05T05:39:50.048Z,7.20
2022-08-05T05:44:52.894Z,5.60
2022-08-05T05:50:04.123Z,8.70
2022-08-05T05:55:13.684Z,5.20
2022-08-05T06:00:19.574Z,6.30
2022-08-05T06:05:22.306Z,10.10
2022-08-05T06:10:25.283Z,7.40
2022-08-05T06:16:30.901Z,6.40
2022-08-05T06:20:54.939Z,4.70
2022-08-05T06:26:13.208Z,5.00
2022-08-05T06:31:22.080Z,5.50
2022-08-05T06:36:26.011Z,4.80
2022-08-05T06:41:28.984Z,4.80
2022-08-05T06:46:37.598Z,4.70
2022-08-05T06:51:41.019Z,5.50
2022-08-05T06:56:54.858Z,5.30
2022-08-05T07:02:07.293Z,5.60
2022-08-05T07:07:10.033Z,6.10
2022-08-05T07:12:32.676Z,4.70
2022-08-05T07:17:58.332Z,9.90
2022-08-05T07:22:58.045Z,8.10
2022-08-05T07:28:05.925Z,5.00
2022-08-05T07:33:16.496Z,6.80
2022-08-05T07:38:32.924Z,5.30
2022-08-05T07:43:37.941Z,4.60
2022-08-05T07:49:02.903Z,4.60
2022-08-05T07:54:03.471Z,4.80
2022-08-05T07:59:08.549Z,5.40
2022-08-05T08:04:11.514Z,5.10
2022-08-05T08:09:14.955Z,6.00
2022-08-05T08:14:19.216Z,5.30
2022-08-05T08:20:10.365Z,4.60
2022-08-05T08:24:51.278Z,4.80
2022-08-05T08:30:04.134Z,4.50
2022-08-05T08:35:17.656Z,3.10
2022-08-05T08:40:22.726Z,4.50
2022-08-05T08:45:29.636Z,5.50
2022-08-05T08:51:22.446Z,4.40
2022-08-05T08:56:03.732Z,5.10
2022-08-05T09:01:11.061Z,6.70
2022-08-05T09:06:21.127Z,4.10
2022-08-05T09:11:52.824Z,4.80
2022-08-05T09:16:50.396Z,3.70
2022-08-05T09:22:23.171Z,6.60
2022-08-05T09:28:04.049Z,4.30
2022-08-05T09:33:02.482Z,7.00
2022-08-05T09:38:13.016Z,5.60
2022-08-05T09:43:41.453Z,3.90
2022-08-05T09:49:06.617Z,6.90
2022-08-05T09:54:09.360Z,4.80
2022-08-05T09:59:16.896Z,4.30
2022-08-05T10:04:29.347Z,3.40
2022-08-05T10:09:45.016Z,3.70
2022-08-05T10:14:48.225Z,3.90
2022-08-05T10:20:03.865Z,5.30
2022-08-05T10:25:14.238Z,8.50
2022-08-05T10:32:49.067Z,4.20
2022-08-05T10:35:44.349Z,4.50
2022-08-05T10:40:58.761Z,6.40
2022-08-05T10:46:07.575Z,2.90
2022-08-05T10:51:21.732Z,4.50
2022-08-05T10:56:30.763Z,4.90
2022-08-05T11:02:03.735Z,4.00
2022-08-05T11:07:11.428Z,5.80
2022-08-05T11:12:26.717Z,4.00
2022-08-05T11:17:57.778Z,3.50
2022-08-05T11:22:59.200Z,6.80
2022-08-05T11:28:17.271Z,5.00
2022-08-05T11:33:46.289Z,3.70
2022-08-05T11:38:57.753Z,3.10
2022-08-05T11:44:05.441Z,6.80
2022-08-05T11:49:15.990Z,5.70
2022-08-05T11:54:33.654Z,7.60
2022-08-05T11:59:49.804Z,4.00
2022-08-05T12:04:59.152Z,4.30
2022-08-05T12:10:09.210Z,5.20
2022-08-05T12:15:33.952Z,4.90
2022-08-05T12:20:41.602Z,4.60
2022-08-05T12:25:51.376Z,5.80
2022-08-05T12:30:57.993Z,6.50
2022-08-05T12:36:09.667Z,5.60
2022-08-05T12:41:14.890Z,3.60
2022-08-05T12:46:29.336Z,4.60
2022-08-05T12:52:13.717Z,5.90
2022-08-05T12:57:12.936Z,4.80
2022-08-05T13:02:30.636Z,4.60
2022-08-05T13:07:57.623Z,3.60
2022-08-05T13:12:58.440Z,4.30
2022-08-05T13:18:02.183Z,4.10
2022-08-05T13:23:07.369Z,5.10
2022-08-05T13:28:10.615Z,6.30
2022-08-05T13:33:14.419Z,4.60
2022-08-05T13:38:41.909Z,6.30
2022-08-05T13:43:54.366Z,5.30
2022-08-05T13:49:00.659Z,6.90
2022-08-05T13:54:11.819Z,4.60
2022-08-05T13:59:20.297Z,12.00
2022-08-05T14:04:49.542Z,3.90
2022-08-05T14:09:53.478Z,3.60
2022-08-05T14:14:56.278Z,4.60
2022-08-05T14:20:04.542Z,5.80
2022-08-05T14:25:19.082Z,4.60
2022-08-05T14:35:37.534Z,5.00
2022-08-05T14:40:54.364Z,6.10
2022-08-05T14:45:57.064Z,4.50
2022-08-05T14:50:59.740Z,7.00
2022-08-05T14:56:06.136Z,7.50
2022-08-05T15:01:15.510Z,3.80
2022-08-05T15:06:19.758Z,4.70
2022-08-05T15:11:52.264Z,4.40
2022-08-05T15:16:56.444Z,4.50
2022-08-05T15:22:01.433Z,6.30
2022-08-05T15:27:04.476Z,7.70
2022-08-05T15:32:12.199Z,4.10
2022-08-05T15:37:19.360Z,4.10
2022-08-05T15:42:55.761Z,4.60
2022-08-05T15:48:03.494Z,9.60
2022-08-05T15:53:06.663Z,6.10
2022-08-05T15:58:16.398Z,4.50
2022-08-05T16:03:19.899Z,5.10
2022-08-05T16:08:23.987Z,4.80
2022-08-05T16:13:34.919Z,4.10
2022-08-05T16:18:52.302Z,4.70
2022-08-05T16:23:58.043Z,5.40
2022-08-05T16:29:04.347Z,5.90
2022-08-05T16:34:11.151Z,4.50
2022-08-05T16:39:14.321Z,4.70
2022-08-05T16:44:18.344Z,5.50
2022-08-05T16:49:23.891Z,5.60
2022-08-05T16:54:31.928Z,4.00
2022-08-05T17:00:00.171Z,5.80
2022-08-05T17:04:58.774Z,5.70
2022-08-05T17:10:02.875Z,4.80
2022-08-05T17:15:07.572Z,7.60
2022-08-05T17:20:14.640Z,6.80
2022-08-05T17:25:34.116Z,6.10
2022-08-05T17:30:42.385Z,6.30
2022-08-05T17:36:07.608Z,5.70
2022-08-05T17:42:16.745Z,4.80
2022-08-05T17:46:35.788Z,11.10
2022-08-05T17:51:40.263Z,9.10
2022-08-05T17:56:44.734Z,7.80
2022-08-05T18:01:51.721Z,8.80
2022-08-05T18:06:54.467Z,7.80
2022-08-05T18:12:03.630Z,5.70
2022-08-05T18:17:07.007Z,7.70
2022-08-05T18:22:46.120Z,10.00
2022-08-05T18:27:52.898Z,8.10
2022-08-05T18:33:00.233Z,6.80
2022-08-05T18:38:03.970Z,5.90
2022-08-05T18:43:09.204Z,9.20
2022-08-05T18:48:30.753Z,6.40
2022-08-05T18:53:45.752Z,9.60
2022-08-05T18:58:54.681Z,7.20
2022-08-05T19:03:57.686Z,6.80
2022-08-05T19:09:00.368Z,9.80
2022-08-05T19:14:15.301Z,9.20
2022-08-05T19:19:27.170Z,9.70
2022-08-05T19:24:34.429Z,9.30
2022-08-05T19:29:39.926Z,9.80
2022-08-05T19:34:54.885Z,14.70
2022-08-05T19:39:59.338Z,12.20
2022-08-05T19:45:02.103Z,11.90
2022-08-05T19:50:10.532Z,17.60
2022-08-05T19:56:14.452Z,13.50
2022-08-05T20:00:37.866Z,9.60
2022-08-05T20:05:49.963Z,11.70
2022-08-05T20:10:53.943Z,12.80
2022-08-05T20:15:57.655Z,14.60
2022-08-05T20:21:00.757Z,9.20
2022-08-05T20:26:04.352Z,8.90
2022-08-05T20:31:08.284Z,13.00
2022-08-05T20:36:11.731Z,12.20
2022-08-05T20:41:24.259Z,8.70
2022-08-05T20:46:30.392Z,10.40
2022-08-05T20:51:34.598Z,7.60
2022-08-05T20:56:41.696Z,10.60
2022-08-05T21:01:45.410Z,11.70
2022-08-05T21:06:48.687Z,11.50
2022-08-05T21:17:14.714Z,13.60
2022-08-05T21:22:23.053Z,14.10
2022-08-05T21:27:27.448Z,16.30
2022-08-05T21:32:30.760Z,11.10
2022-08-05T21:37:34.958Z,9.30
2022-08-05T21:42:45.487Z,9.90
2022-08-05T21:47:55.717Z,9.80
2022-08-05T21:53:04.876Z,10.50
2022-08-05T21:58:20.200Z,12.30
2022-08-05T22:03:49.064Z,8.80
2022-08-05T22:08:52.577Z,10.30
2022-08-05T22:14:19.621Z,7.70
2022-08-05T22:19:57.222Z,8.60
2022-08-05T22:25:01.701Z,5.90
2022-08-05T22:30:05.162Z,6.70
2022-08-05T22:35:08.785Z,5.80
2022-08-05T22:40:12.182Z,7.00
2022-08-05T22:45:19.674Z,5.60
2022-08-05T22:50:26.727Z,7.10
2022-08-05T22:55:37.226Z,7.90
2022-08-05T23:00:53.220Z,6.50
2022-08-05T23:06:00.161Z,6.60
2022-08-05T23:11:04.086Z,8.00
2022-08-05T23:16:07.205Z,9.20
2022-08-05T23:21:11.225Z,8.50
2022-08-05T23:26:20.014Z,5.50
2022-08-05T23:31:24.440Z,5.30
2022-08-05T23:36:28.292Z,5.50
2022-08-05T23:41:34.248Z,7.40
2022-08-05T23:46:40.219Z,5.40
2022-08-05T23:52:03.409Z,8.00
2022-08-05T23:57:08.677Z,6.80
